sensor_id;sensor_type;location;lat;lon;timestamp;P1;durP1;ratioP1;P2;durP2;ratioP2
38783;SDS011;24531;45.502;12.238;2024-03-23T00:54:53;26.35;;;19.10;;
38783;SDS011;24531;45.502;12.238;2024-03-23T00:57:18;27.02;;;18.83;;
38783;SDS011;24531;45.502;12.238;2024-03-23T00:59:44;25.52;;;19.45;;
38783;SDS011;24531;45.502;12.238;2024-03-23T01:02:09;26.25;;;20.02;;
38783;SDS011;24531;45.502;12.238;2024-03-23T01:04:35;28.05;;;19.10;;
38783;SDS011;24531;45.502;12.238;2024-03-23T01:07:04;28.95;;;19.98;;
38783;SDS011;24531;45.502;12.238;2024-03-23T01:09:29;28.65;;;18.80;;
38783;SDS011;24531;45.502;12.238;2024-03-23T01:11:55;26.40;;;18.90;;
38783;SDS011;24531;45.502;12.238;2024-03-23T01:14:20;28.05;;;19.38;;
38783;SDS011;24531;45.502;12.238;2024-03-23T01:16:47;29.48;;;18.92;;
38783;SDS011;24531;45.502;12.238;2024-03-23T01:19:13;28.75;;;20.63;;
38783;SDS011;24531;45.502;12.238;2024-03-23T01:21:38;32.28;;;21.90;;
38783;SDS011;24531;45.502;12.238;2024-03-23T01:24:04;31.08;;;20.60;;
38783;SDS011;24531;45.502;12.238;2024-03-23T01:26:29;31.02;;;20.48;;
38783;SDS011;24531;45.502;12.238;2024-03-23T01:28:55;28.95;;;21.15;;
38783;SDS011;24531;45.502;12.238;2024-03-23T01:31:21;30.27;;;21.50;;
38783;SDS011;24531;45.502;12.238;2024-03-23T01:33:46;25.42;;;19.15;;
38783;SDS011;24531;45.502;12.238;2024-03-23T01:36:12;27.23;;;19.55;;
38783;SDS011;24531;45.502;12.238;2024-03-23T01:38:37;32.00;;;20.20;;
38783;SDS011;24531;45.502;12.238;2024-03-23T01:41:03;33.63;;;21.25;;
38783;SDS011;24531;45.502;12.238;2024-03-23T01:43:30;30.85;;;20.75;;
38783;SDS011;24531;45.502;12.238;2024-03-23T01:45:56;27.38;;;19.52;;
38783;SDS011;24531;45.502;12.238;2024-03-23T01:48:23;29.40;;;20.50;;
38783;SDS011;24531;45.502;12.238;2024-03-23T01:50:49;28.45;;;20.05;;
38783;SDS011;24531;45.502;12.238;2024-03-23T01:53:15;28.67;;;20.48;;
38783;SDS011;24531;45.502;12.238;2024-03-23T01:55:46;31.33;;;21.27;;
38783;SDS011;24531;45.502;12.238;2024-03-23T01:58:12;28.88;;;21.33;;
38783;SDS011;24531;45.502;12.238;2024-03-23T02:00:40;30.60;;;20.52;;
38783;SDS011;24531;45.502;12.238;2024-03-23T02:03:24;31.30;;;21.40;;
38783;SDS011;24531;45.502;12.238;2024-03-23T02:05:50;29.65;;;20.63;;
38783;SDS011;24531;45.502;12.238;2024-03-23T02:08:17;29.25;;;20.48;;
38783;SDS011;24531;45.502;12.238;2024-03-23T02:10:45;28.42;;;20.20;;
38783;SDS011;24531;45.502;12.238;2024-03-23T02:13:10;28.17;;;20.77;;
38783;SDS011;24531;45.502;12.238;2024-03-23T02:15:36;29.33;;;19.75;;
38783;SDS011;24531;45.502;12.238;2024-03-23T02:18:02;27.98;;;20.50;;
38783;SDS011;24531;45.502;12.238;2024-03-23T02:20:27;30.95;;;19.75;;
38783;SDS011;24531;45.502;12.238;2024-03-23T02:22:53;28.35;;;19.45;;
38783;SDS011;24531;45.502;12.238;2024-03-23T02:25:20;26.30;;;19.45;;
38783;SDS011;24531;45.502;12.238;2024-03-23T02:27:45;28.80;;;19.42;;
38783;SDS011;24531;45.502;12.238;2024-03-23T02:30:11;27.40;;;20.38;;
38783;SDS011;24531;45.502;12.238;2024-03-23T02:32:37;29.10;;;20.10;;
38783;SDS011;24531;45.502;12.238;2024-03-23T02:35:02;29.10;;;19.73;;
38783;SDS011;24531;45.502;12.238;2024-03-23T02:37:28;27.33;;;19.55;;
38783;SDS011;24531;45.502;12.238;2024-03-23T02:39:54;30.23;;;20.70;;
38783;SDS011;24531;45.502;12.238;2024-03-23T02:42:19;28.73;;;20.13;;
38783;SDS011;24531;45.502;12.238;2024-03-23T02:44:45;34.70;;;21.77;;
38783;SDS011;24531;45.502;12.238;2024-03-23T02:47:10;26.10;;;19.10;;
38783;SDS011;24531;45.502;12.238;2024-03-23T02:49:36;25.60;;;18.98;;
38783;SDS011;24531;45.502;12.238;2024-03-23T02:52:02;24.83;;;18.08;;
38783;SDS011;24531;45.502;12.238;2024-03-23T02:54:28;27.25;;;18.73;;
38783;SDS011;24531;45.502;12.238;2024-03-23T02:56:53;30.05;;;19.27;;
38783;SDS011;24531;45.502;12.238;2024-03-23T02:59:19;24.35;;;18.63;;
38783;SDS011;24531;45.502;12.238;2024-03-23T03:01:44;30.73;;;20.90;;
38783;SDS011;24531;45.502;12.238;2024-03-23T03:04:10;28.83;;;19.35;;
38783;SDS011;24531;45.502;12.238;2024-03-23T03:06:36;31.17;;;21.25;;
38783;SDS011;24531;45.502;12.238;2024-03-23T03:09:02;30.52;;;19.98;;
38783;SDS011;24531;45.502;12.238;2024-03-23T03:11:27;26.70;;;20.17;;
38783;SDS011;24531;45.502;12.238;2024-03-23T03:13:53;25.95;;;20.95;;
38783;SDS011;24531;45.502;12.238;2024-03-23T03:16:19;29.17;;;21.02;;
38783;SDS011;24531;45.502;12.238;2024-03-23T03:18:44;26.30;;;18.23;;
38783;SDS011;24531;45.502;12.238;2024-03-23T03:21:11;29.90;;;19.45;;
38783;SDS011;24531;45.502;12.238;2024-03-23T03:23:37;27.40;;;20.92;;
38783;SDS011;24531;45.502;12.238;2024-03-23T03:26:03;28.23;;;20.70;;
38783;SDS011;24531;45.502;12.238;2024-03-23T03:28:30;28.35;;;20.90;;
38783;SDS011;24531;45.502;12.238;2024-03-23T03:31:00;30.45;;;20.42;;
38783;SDS011;24531;45.502;12.238;2024-03-23T03:33:28;31.67;;;20.80;;
38783;SDS011;24531;45.502;12.238;2024-03-23T03:35:54;33.72;;;20.83;;
38783;SDS011;24531;45.502;12.238;2024-03-23T03:38:20;26.55;;;19.83;;
38783;SDS011;24531;45.502;12.238;2024-03-23T03:40:46;33.20;;;20.85;;
38783;SDS011;24531;45.502;12.238;2024-03-23T03:43:11;30.73;;;20.65;;
38783;SDS011;24531;45.502;12.238;2024-03-23T03:45:37;27.10;;;19.73;;
38783;SDS011;24531;45.502;12.238;2024-03-23T03:48:03;30.98;;;20.70;;
38783;SDS011;24531;45.502;12.238;2024-03-23T03:50:29;28.70;;;20.13;;
38783;SDS011;24531;45.502;12.238;2024-03-23T03:52:55;28.65;;;19.88;;
38783;SDS011;24531;45.502;12.238;2024-03-23T03:55:22;27.92;;;19.83;;
38783;SDS011;24531;45.502;12.238;2024-03-23T03:57:48;35.80;;;21.35;;
38783;SDS011;24531;45.502;12.238;2024-03-23T04:00:13;27.40;;;20.02;;
38783;SDS011;24531;45.502;12.238;2024-03-23T04:02:39;28.70;;;21.05;;
38783;SDS011;24531;45.502;12.238;2024-03-23T04:05:05;30.63;;;20.13;;
38783;SDS011;24531;45.502;12.238;2024-03-23T04:07:31;28.13;;;21.10;;
38783;SDS011;24531;45.502;12.238;2024-03-23T04:09:57;33.00;;;21.98;;
38783;SDS011;24531;45.502;12.238;2024-03-23T04:12:23;29.30;;;20.23;;
38783;SDS011;24531;45.502;12.238;2024-03-23T04:14:49;30.10;;;21.35;;
38783;SDS011;24531;45.502;12.238;2024-03-23T04:17:14;32.30;;;21.38;;
38783;SDS011;24531;45.502;12.238;2024-03-23T04:19:41;32.25;;;20.95;;
38783;SDS011;24531;45.502;12.238;2024-03-23T04:22:07;26.50;;;20.17;;
38783;SDS011;24531;45.502;12.238;2024-03-23T04:24:33;28.45;;;21.67;;
38783;SDS011;24531;45.502;12.238;2024-03-23T04:26:58;30.65;;;21.63;;
38783;SDS011;24531;45.502;12.238;2024-03-23T04:29:24;31.80;;;22.40;;
38783;SDS011;24531;45.502;12.238;2024-03-23T04:31:51;32.85;;;22.42;;
38783;SDS011;24531;45.502;12.238;2024-03-23T04:34:17;30.50;;;21.63;;
38783;SDS011;24531;45.502;12.238;2024-03-23T04:36:43;27.85;;;20.63;;
38783;SDS011;24531;45.502;12.238;2024-03-23T04:39:09;28.80;;;20.48;;
38783;SDS011;24531;45.502;12.238;2024-03-23T04:41:35;28.55;;;20.80;;
38783;SDS011;24531;45.502;12.238;2024-03-23T04:44:01;28.63;;;20.20;;
38783;SDS011;24531;45.502;12.238;2024-03-23T04:46:27;27.08;;;21.33;;
38783;SDS011;24531;45.502;12.238;2024-03-23T04:48:52;30.00;;;20.85;;
38783;SDS011;24531;45.502;12.238;2024-03-23T04:51:24;24.90;;;18.77;;
38783;SDS011;24531;45.502;12.238;2024-03-23T04:53:50;27.58;;;19.55;;
38783;SDS011;24531;45.502;12.238;2024-03-23T04:56:16;30.15;;;20.02;;
38783;SDS011;24531;45.502;12.238;2024-03-23T04:58:42;24.73;;;19.15;;
38783;SDS011;24531;45.502;12.238;2024-03-23T05:01:08;29.88;;;19.35;;
38783;SDS011;24531;45.502;12.238;2024-03-23T05:03:36;28.48;;;20.67;;
38783;SDS011;24531;45.502;12.238;2024-03-23T05:06:01;25.58;;;18.23;;
38783;SDS011;24531;45.502;12.238;2024-03-23T05:08:27;28.38;;;19.77;;
38783;SDS011;24531;45.502;12.238;2024-03-23T05:10:53;27.38;;;18.33;;
38783;SDS011;24531;45.502;12.238;2024-03-23T05:13:18;25.83;;;18.65;;
38783;SDS011;24531;45.502;12.238;2024-03-23T05:15:44;26.42;;;19.15;;
38783;SDS011;24531;45.502;12.238;2024-03-23T05:18:15;24.38;;;18.27;;
38783;SDS011;24531;45.502;12.238;2024-03-23T05:20:41;26.48;;;18.77;;
38783;SDS011;24531;45.502;12.238;2024-03-23T05:23:06;31.50;;;18.77;;
38783;SDS011;24531;45.502;12.238;2024-03-23T05:25:32;22.23;;;17.90;;
38783;SDS011;24531;45.502;12.238;2024-03-23T05:27:59;25.65;;;18.98;;
38783;SDS011;24531;45.502;12.238;2024-03-23T05:30:24;29.73;;;19.80;;
38783;SDS011;24531;45.502;12.238;2024-03-23T05:32:50;23.75;;;17.73;;
38783;SDS011;24531;45.502;12.238;2024-03-23T05:35:15;24.33;;;17.98;;
38783;SDS011;24531;45.502;12.238;2024-03-23T05:37:44;29.92;;;18.80;;
38783;SDS011;24531;45.502;12.238;2024-03-23T05:40:10;23.02;;;19.00;;
38783;SDS011;24531;45.502;12.238;2024-03-23T05:42:40;22.73;;;17.98;;
38783;SDS011;24531;45.502;12.238;2024-03-23T05:45:06;25.02;;;18.20;;
38783;SDS011;24531;45.502;12.238;2024-03-23T05:47:35;27.67;;;18.58;;
38783;SDS011;24531;45.502;12.238;2024-03-23T05:50:01;26.10;;;18.73;;
38783;SDS011;24531;45.502;12.238;2024-03-23T05:52:27;24.30;;;18.98;;
38783;SDS011;24531;45.502;12.238;2024-03-23T05:54:53;28.35;;;20.35;;
38783;SDS011;24531;45.502;12.238;2024-03-23T05:57:23;24.08;;;19.40;;
38783;SDS011;24531;45.502;12.238;2024-03-23T05:59:48;28.48;;;19.13;;
38783;SDS011;24531;45.502;12.238;2024-03-23T06:02:14;26.33;;;20.20;;
38783;SDS011;24531;45.502;12.238;2024-03-23T06:04:45;24.45;;;19.75;;
38783;SDS011;24531;45.502;12.238;2024-03-23T06:07:10;29.35;;;19.52;;
38783;SDS011;24531;45.502;12.238;2024-03-23T06:09:39;25.65;;;19.65;;
38783;SDS011;24531;45.502;12.238;2024-03-23T06:12:07;30.88;;;22.77;;
38783;SDS011;24531;45.502;12.238;2024-03-23T06:14:34;37.38;;;24.63;;
38783;SDS011;24531;45.502;12.238;2024-03-23T06:17:00;31.73;;;24.27;;
38783;SDS011;24531;45.502;12.238;2024-03-23T06:19:26;34.33;;;25.20;;
38783;SDS011;24531;45.502;12.238;2024-03-23T06:21:53;36.63;;;23.35;;
38783;SDS011;24531;45.502;12.238;2024-03-23T06:24:20;34.80;;;25.25;;
38783;SDS011;24531;45.502;12.238;2024-03-23T06:26:49;33.35;;;24.48;;
38783;SDS011;24531;45.502;12.238;2024-03-23T06:29:15;35.50;;;25.00;;
38783;SDS011;24531;45.502;12.238;2024-03-23T06:31:40;33.65;;;25.15;;
38783;SDS011;24531;45.502;12.238;2024-03-23T06:34:06;33.42;;;25.35;;
38783;SDS011;24531;45.502;12.238;2024-03-23T06:36:31;32.38;;;24.27;;
38783;SDS011;24531;45.502;12.238;2024-03-23T06:38:57;32.63;;;23.05;;
38783;SDS011;24531;45.502;12.238;2024-03-23T06:41:23;34.33;;;23.10;;
38783;SDS011;24531;45.502;12.238;2024-03-23T06:43:50;31.52;;;23.17;;
38783;SDS011;24531;45.502;12.238;2024-03-23T06:46:15;31.45;;;23.50;;
38783;SDS011;24531;45.502;12.238;2024-03-23T06:48:41;31.63;;;23.73;;
38783;SDS011;24531;45.502;12.238;2024-03-23T06:51:07;31.50;;;24.00;;
38783;SDS011;24531;45.502;12.238;2024-03-23T06:53:37;33.45;;;24.52;;
38783;SDS011;24531;45.502;12.238;2024-03-23T06:56:03;32.10;;;24.45;;
38783;SDS011;24531;45.502;12.238;2024-03-23T06:58:29;30.92;;;23.65;;
38783;SDS011;24531;45.502;12.238;2024-03-23T07:00:54;30.95;;;23.65;;
38783;SDS011;24531;45.502;12.238;2024-03-23T07:03:20;32.70;;;24.05;;
38783;SDS011;24531;45.502;12.238;2024-03-23T07:05:46;31.70;;;23.73;;
38783;SDS011;24531;45.502;12.238;2024-03-23T07:08:12;31.90;;;22.88;;
38783;SDS011;24531;45.502;12.238;2024-03-23T07:10:41;32.08;;;24.27;;
38783;SDS011;24531;45.502;12.238;2024-03-23T07:13:06;31.20;;;22.85;;
38783;SDS011;24531;45.502;12.238;2024-03-23T07:15:32;29.95;;;22.38;;
38783;SDS011;24531;45.502;12.238;2024-03-23T07:17:58;34.75;;;22.85;;
38783;SDS011;24531;45.502;12.238;2024-03-23T07:20:24;28.88;;;23.55;;
38783;SDS011;24531;45.502;12.238;2024-03-23T07:22:50;30.15;;;23.02;;
38783;SDS011;24531;45.502;12.238;2024-03-23T07:25:16;27.08;;;21.70;;
38783;SDS011;24531;45.502;12.238;2024-03-23T07:27:42;32.33;;;25.00;;
38783;SDS011;24531;45.502;12.238;2024-03-23T07:30:07;31.67;;;24.85;;
38783;SDS011;24531;45.502;12.238;2024-03-23T07:32:33;28.67;;;22.45;;
38783;SDS011;24531;45.502;12.238;2024-03-23T07:34:59;30.48;;;23.55;;
38783;SDS011;24531;45.502;12.238;2024-03-23T07:37:25;32.30;;;25.80;;
38783;SDS011;24531;45.502;12.238;2024-03-23T07:39:51;28.58;;;23.58;;
38783;SDS011;24531;45.502;12.238;2024-03-23T07:42:16;29.55;;;24.10;;
38783;SDS011;24531;45.502;12.238;2024-03-23T07:44:42;32.83;;;25.02;;
38783;SDS011;24531;45.502;12.238;2024-03-23T07:47:07;28.92;;;23.45;;
38783;SDS011;24531;45.502;12.238;2024-03-23T07:49:33;34.95;;;24.52;;
38783;SDS011;24531;45.502;12.238;2024-03-23T07:51:59;34.25;;;24.90;;
38783;SDS011;24531;45.502;12.238;2024-03-23T07:54:24;30.38;;;23.55;;
38783;SDS011;24531;45.502;12.238;2024-03-23T07:56:50;28.70;;;23.42;;
38783;SDS011;24531;45.502;12.238;2024-03-23T07:59:15;33.50;;;24.75;;
38783;SDS011;24531;45.502;12.238;2024-03-23T08:01:41;31.65;;;23.95;;
38783;SDS011;24531;45.502;12.238;2024-03-23T08:04:07;32.58;;;24.38;;
38783;SDS011;24531;45.502;12.238;2024-03-23T08:06:32;31.42;;;22.85;;
38783;SDS011;24531;45.502;12.238;2024-03-23T08:08:58;30.00;;;23.90;;
38783;SDS011;24531;45.502;12.238;2024-03-23T08:11:27;31.33;;;24.17;;
38783;SDS011;24531;45.502;12.238;2024-03-23T08:13:54;27.90;;;22.33;;
38783;SDS011;24531;45.502;12.238;2024-03-23T08:16:20;25.50;;;21.08;;
38783;SDS011;24531;45.502;12.238;2024-03-23T08:18:46;28.88;;;23.10;;
38783;SDS011;24531;45.502;12.238;2024-03-23T08:21:12;26.13;;;20.65;;
38783;SDS011;24531;45.502;12.238;2024-03-23T08:23:37;23.52;;;18.75;;
38783;SDS011;24531;45.502;12.238;2024-03-23T08:26:04;25.48;;;16.98;;
38783;SDS011;24531;45.502;12.238;2024-03-23T08:28:31;25.67;;;20.00;;
38783;SDS011;24531;45.502;12.238;2024-03-23T08:31:00;25.35;;;18.38;;
38783;SDS011;24531;45.502;12.238;2024-03-23T08:33:27;24.63;;;18.80;;
38783;SDS011;24531;45.502;12.238;2024-03-23T08:36:00;22.52;;;18.10;;
38783;SDS011;24531;45.502;12.238;2024-03-23T08:38:28;27.08;;;18.92;;
38783;SDS011;24531;45.502;12.238;2024-03-23T08:41:00;25.50;;;18.33;;
38783;SDS011;24531;45.502;12.238;2024-03-23T08:43:27;21.55;;;18.02;;
38783;SDS011;24531;45.502;12.238;2024-03-23T08:46:02;25.30;;;17.90;;
38783;SDS011;24531;45.502;12.238;2024-03-23T08:48:28;24.45;;;18.25;;
38783;SDS011;24531;45.502;12.238;2024-03-23T08:51:07;24.08;;;17.50;;
38783;SDS011;24531;45.502;12.238;2024-03-23T08:53:37;20.38;;;16.40;;
38783;SDS011;24531;45.502;12.238;2024-03-23T08:56:04;19.83;;;16.58;;
38783;SDS011;24531;45.502;12.238;2024-03-23T08:58:31;21.20;;;16.40;;
38783;SDS011;24531;45.502;12.238;2024-03-23T09:01:02;22.85;;;15.60;;
38783;SDS011;24531;45.502;12.238;2024-03-23T09:03:29;22.75;;;17.15;;
38783;SDS011;24531;45.502;12.238;2024-03-23T09:05:56;21.23;;;16.02;;
38783;SDS011;24531;45.502;12.238;2024-03-23T09:08:23;21.10;;;15.48;;
38783;SDS011;24531;45.502;12.238;2024-03-23T09:10:48;18.80;;;14.43;;
38783;SDS011;24531;45.502;12.238;2024-03-23T09:13:14;18.25;;;13.98;;
38783;SDS011;24531;45.502;12.238;2024-03-23T09:15:50;18.80;;;13.15;;
38783;SDS011;24531;45.502;12.238;2024-03-23T09:18:17;21.25;;;13.60;;
38783;SDS011;24531;45.502;12.238;2024-03-23T09:20:43;21.00;;;15.20;;
38783;SDS011;24531;45.502;12.238;2024-03-23T09:23:08;15.65;;;13.70;;
38783;SDS011;24531;45.502;12.238;2024-03-23T09:25:37;16.98;;;13.38;;
38783;SDS011;24531;45.502;12.238;2024-03-23T09:28:04;17.13;;;13.70;;
38783;SDS011;24531;45.502;12.238;2024-03-23T09:30:31;16.73;;;12.75;;
38783;SDS011;24531;45.502;12.238;2024-03-23T09:32:58;16.05;;;12.38;;
38783;SDS011;24531;45.502;12.238;2024-03-23T09:35:24;20.25;;;12.73;;
38783;SDS011;24531;45.502;12.238;2024-03-23T09:37:50;15.20;;;11.82;;
38783;SDS011;24531;45.502;12.238;2024-03-23T09:40:15;16.40;;;12.07;;
38783;SDS011;24531;45.502;12.238;2024-03-23T09:42:41;16.00;;;11.38;;
38783;SDS011;24531;45.502;12.238;2024-03-23T09:45:16;13.57;;;9.88;;
38783;SDS011;24531;45.502;12.238;2024-03-23T09:47:44;14.40;;;11.18;;
38783;SDS011;24531;45.502;12.238;2024-03-23T09:50:12;15.45;;;10.07;;
38783;SDS011;24531;45.502;12.238;2024-03-23T09:52:38;13.00;;;9.73;;
38783;SDS011;24531;45.502;12.238;2024-03-23T09:55:04;14.65;;;10.63;;
38783;SDS011;24531;45.502;12.238;2024-03-23T09:57:30;12.20;;;10.25;;
38783;SDS011;24531;45.502;12.238;2024-03-23T09:59:56;11.88;;;10.07;;
38783;SDS011;24531;45.502;12.238;2024-03-23T10:02:23;12.05;;;9.82;;
38783;SDS011;24531;45.502;12.238;2024-03-23T10:04:49;12.10;;;9.73;;
38783;SDS011;24531;45.502;12.238;2024-03-23T10:07:17;12.88;;;10.30;;
38783;SDS011;24531;45.502;12.238;2024-03-23T10:09:44;15.68;;;11.35;;
38783;SDS011;24531;45.502;12.238;2024-03-23T10:12:10;12.63;;;10.75;;
38783;SDS011;24531;45.502;12.238;2024-03-23T10:14:38;14.35;;;11.00;;
38783;SDS011;24531;45.502;12.238;2024-03-23T10:17:15;14.13;;;11.63;;
38783;SDS011;24531;45.502;12.238;2024-03-23T10:19:44;14.80;;;10.90;;
38783;SDS011;24531;45.502;12.238;2024-03-23T10:22:25;12.80;;;10.40;;
38783;SDS011;24531;45.502;12.238;2024-03-23T10:24:51;18.98;;;11.10;;
38783;SDS011;24531;45.502;12.238;2024-03-23T10:27:17;18.48;;;11.63;;
38783;SDS011;24531;45.502;12.238;2024-03-23T10:29:44;16.52;;;12.75;;
38783;SDS011;24531;45.502;12.238;2024-03-23T10:32:10;17.83;;;12.13;;
38783;SDS011;24531;45.502;12.238;2024-03-23T10:34:37;15.57;;;11.63;;
38783;SDS011;24531;45.502;12.238;2024-03-23T10:37:04;13.65;;;11.38;;
38783;SDS011;24531;45.502;12.238;2024-03-23T10:39:33;14.88;;;11.88;;
38783;SDS011;24531;45.502;12.238;2024-03-23T10:42:07;18.67;;;13.57;;
38783;SDS011;24531;45.502;12.238;2024-03-23T10:44:35;18.83;;;12.98;;
38783;SDS011;24531;45.502;12.238;2024-03-23T10:47:02;17.13;;;12.40;;
38783;SDS011;24531;45.502;12.238;2024-03-23T10:49:29;16.20;;;12.57;;
38783;SDS011;24531;45.502;12.238;2024-03-23T10:51:57;17.50;;;13.80;;
38783;SDS011;24531;45.502;12.238;2024-03-23T10:54:24;19.45;;;13.30;;
38783;SDS011;24531;45.502;12.238;2024-03-23T10:56:54;19.15;;;13.48;;
38783;SDS011;24531;45.502;12.238;2024-03-23T10:59:22;18.30;;;13.95;;
38783;SDS011;24531;45.502;12.238;2024-03-23T11:01:57;20.80;;;15.65;;
38783;SDS011;24531;45.502;12.238;2024-03-23T11:04:31;21.67;;;14.98;;
38783;SDS011;24531;45.502;12.238;2024-03-23T11:07:01;19.60;;;14.07;;
38783;SDS011;24531;45.502;12.238;2024-03-23T11:14:51;20.92;;;15.88;;
38783;SDS011;24531;45.502;12.238;2024-03-23T11:17:31;21.33;;;15.20;;
38783;SDS011;24531;45.502;12.238;2024-03-23T11:22:43;23.70;;;17.98;;
38783;SDS011;24531;45.502;12.238;2024-03-23T11:27:40;32.05;;;20.77;;
38783;SDS011;24531;45.502;12.238;2024-03-23T11:30:27;27.63;;;20.50;;
38783;SDS011;24531;45.502;12.238;2024-03-23T11:32:56;26.83;;;18.85;;
38783;SDS011;24531;45.502;12.238;2024-03-23T11:38:11;28.35;;;20.33;;
38783;SDS011;24531;45.502;12.238;2024-03-23T11:40:39;25.77;;;18.55;;
38783;SDS011;24531;45.502;12.238;2024-03-23T11:43:10;35.10;;;21.77;;
38783;SDS011;24531;45.502;12.238;2024-03-23T11:45:47;25.65;;;20.95;;
38783;SDS011;24531;45.502;12.238;2024-03-23T11:48:18;28.70;;;21.27;;
38783;SDS011;24531;45.502;12.238;2024-03-23T11:50:45;27.00;;;19.80;;
38783;SDS011;24531;45.502;12.238;2024-03-23T11:53:18;28.90;;;19.73;;
38783;SDS011;24531;45.502;12.238;2024-03-23T11:58:16;22.33;;;16.23;;
38783;SDS011;24531;45.502;12.238;2024-03-23T12:00:43;24.40;;;18.27;;
38783;SDS011;24531;45.502;12.238;2024-03-23T12:03:28;22.40;;;16.80;;
38783;SDS011;24531;45.502;12.238;2024-03-23T12:05:58;22.38;;;17.30;;
38783;SDS011;24531;45.502;12.238;2024-03-23T12:08:30;24.05;;;17.25;;
38783;SDS011;24531;45.502;12.238;2024-03-23T12:11:12;23.67;;;16.75;;
38783;SDS011;24531;45.502;12.238;2024-03-23T12:13:39;23.30;;;15.60;;
38783;SDS011;24531;45.502;12.238;2024-03-23T12:16:17;26.10;;;16.48;;
38783;SDS011;24531;45.502;12.238;2024-03-23T12:18:46;25.40;;;16.92;;
38783;SDS011;24531;45.502;12.238;2024-03-23T12:21:13;24.23;;;17.13;;
38783;SDS011;24531;45.502;12.238;2024-03-23T12:23:39;23.38;;;16.15;;
38783;SDS011;24531;45.502;12.238;2024-03-23T12:26:05;25.13;;;18.00;;
38783;SDS011;24531;45.502;12.238;2024-03-23T12:28:31;24.67;;;17.00;;
38783;SDS011;24531;45.502;12.238;2024-03-23T12:30:57;24.85;;;17.02;;
38783;SDS011;24531;45.502;12.238;2024-03-23T12:33:23;25.05;;;17.95;;
38783;SDS011;24531;45.502;12.238;2024-03-23T12:35:49;23.88;;;18.20;;
38783;SDS011;24531;45.502;12.238;2024-03-23T12:38:15;22.90;;;17.92;;
38783;SDS011;24531;45.502;12.238;2024-03-23T12:40:41;21.90;;;16.58;;
38783;SDS011;24531;45.502;12.238;2024-03-23T12:43:07;23.13;;;17.90;;
38783;SDS011;24531;45.502;12.238;2024-03-23T13:19:22;27.65;;;18.88;;
38783;SDS011;24531;45.502;12.238;2024-03-23T13:21:52;28.80;;;20.70;;
38783;SDS011;24531;45.502;12.238;2024-03-23T13:24:21;28.05;;;19.75;;
38783;SDS011;24531;45.502;12.238;2024-03-23T13:26:50;28.95;;;20.63;;
38783;SDS011;24531;45.502;12.238;2024-03-23T13:29:17;28.85;;;21.65;;
38783;SDS011;24531;45.502;12.238;2024-03-23T13:31:43;33.55;;;21.42;;
38783;SDS011;24531;45.502;12.238;2024-03-23T13:34:09;29.70;;;20.75;;
38783;SDS011;24531;45.502;12.238;2024-03-23T13:36:34;29.38;;;21.00;;
38783;SDS011;24531;45.502;12.238;2024-03-23T13:39:01;31.77;;;21.17;;
38783;SDS011;24531;45.502;12.238;2024-03-23T13:41:32;31.17;;;21.77;;
38783;SDS011;24531;45.502;12.238;2024-03-23T13:43:57;27.10;;;20.88;;
38783;SDS011;24531;45.502;12.238;2024-03-23T13:46:23;29.35;;;21.95;;
38783;SDS011;24531;45.502;12.238;2024-03-23T13:48:49;27.42;;;19.33;;
38783;SDS011;24531;45.502;12.238;2024-03-23T13:51:14;25.17;;;19.20;;
38783;SDS011;24531;45.502;12.238;2024-03-23T13:53:40;26.20;;;19.33;;
38783;SDS011;24531;45.502;12.238;2024-03-23T13:56:05;30.17;;;21.00;;
38783;SDS011;24531;45.502;12.238;2024-03-23T13:58:31;24.63;;;19.73;;
38783;SDS011;24531;45.502;12.238;2024-03-23T14:00:57;29.17;;;20.77;;
38783;SDS011;24531;45.502;12.238;2024-03-23T14:03:23;30.27;;;19.92;;
38783;SDS011;24531;45.502;12.238;2024-03-23T14:05:48;28.42;;;18.73;;
38783;SDS011;24531;45.502;12.238;2024-03-23T14:08:14;31.20;;;21.65;;
38783;SDS011;24531;45.502;12.238;2024-03-23T14:10:40;26.23;;;19.65;;
38783;SDS011;24531;45.502;12.238;2024-03-23T14:13:06;26.17;;;20.45;;
38783;SDS011;24531;45.502;12.238;2024-03-23T14:15:32;26.63;;;19.13;;
38783;SDS011;24531;45.502;12.238;2024-03-23T14:17:58;27.90;;;18.02;;
38783;SDS011;24531;45.502;12.238;2024-03-23T14:20:24;25.50;;;19.63;;
38783;SDS011;24531;45.502;12.238;2024-03-23T14:22:50;26.02;;;18.10;;
38783;SDS011;24531;45.502;12.238;2024-03-23T14:25:16;24.98;;;18.52;;
38783;SDS011;24531;45.502;12.238;2024-03-23T14:27:44;26.77;;;17.13;;
38783;SDS011;24531;45.502;12.238;2024-03-23T14:30:10;28.58;;;19.75;;
38783;SDS011;24531;45.502;12.238;2024-03-23T14:32:37;25.85;;;19.65;;
38783;SDS011;24531;45.502;12.238;2024-03-23T14:35:03;29.00;;;20.90;;
38783;SDS011;24531;45.502;12.238;2024-03-23T14:37:29;25.83;;;18.35;;
38783;SDS011;24531;45.502;12.238;2024-03-23T14:39:55;25.45;;;18.00;;
38783;SDS011;24531;45.502;12.238;2024-03-23T14:42:22;29.15;;;20.13;;
38783;SDS011;24531;45.502;12.238;2024-03-23T14:44:48;27.02;;;18.75;;
38783;SDS011;24531;45.502;12.238;2024-03-23T14:47:14;29.48;;;19.50;;
38783;SDS011;24531;45.502;12.238;2024-03-23T14:49:41;29.25;;;19.65;;
38783;SDS011;24531;45.502;12.238;2024-03-23T14:52:07;24.90;;;18.67;;
38783;SDS011;24531;45.502;12.238;2024-03-23T14:54:34;29.52;;;20.17;;
38783;SDS011;24531;45.502;12.238;2024-03-23T14:57:00;30.02;;;19.48;;
38783;SDS011;24531;45.502;12.238;2024-03-23T14:59:25;24.98;;;17.52;;
38783;SDS011;24531;45.502;12.238;2024-03-23T15:01:51;25.70;;;17.75;;
38783;SDS011;24531;45.502;12.238;2024-03-23T15:04:17;22.48;;;16.75;;
38783;SDS011;24531;45.502;12.238;2024-03-23T15:06:42;24.83;;;17.85;;
38783;SDS011;24531;45.502;12.238;2024-03-23T15:09:11;22.30;;;16.83;;
38783;SDS011;24531;45.502;12.238;2024-03-23T15:11:37;24.27;;;16.90;;
38783;SDS011;24531;45.502;12.238;2024-03-23T15:14:02;20.42;;;14.85;;
38783;SDS011;24531;45.502;12.238;2024-03-23T15:16:28;20.83;;;15.45;;
38783;SDS011;24531;45.502;12.238;2024-03-23T15:18:54;21.67;;;16.55;;
38783;SDS011;24531;45.502;12.238;2024-03-23T15:21:19;16.45;;;12.35;;
38783;SDS011;24531;45.502;12.238;2024-03-23T15:23:46;18.13;;;12.68;;
38783;SDS011;24531;45.502;12.238;2024-03-23T15:26:12;17.13;;;12.35;;
38783;SDS011;24531;45.502;12.238;2024-03-23T15:28:38;18.13;;;12.02;;
38783;SDS011;24531;45.502;12.238;2024-03-23T15:31:19;17.55;;;11.02;;
38783;SDS011;24531;45.502;12.238;2024-03-23T15:33:45;14.45;;;11.10;;
38783;SDS011;24531;45.502;12.238;2024-03-23T15:36:11;16.00;;;10.80;;
38783;SDS011;24531;45.502;12.238;2024-03-23T15:38:38;17.05;;;10.98;;
38783;SDS011;24531;45.502;12.238;2024-03-23T15:41:04;16.52;;;10.20;;
38783;SDS011;24531;45.502;12.238;2024-03-23T15:43:31;18.40;;;10.60;;
38783;SDS011;24531;45.502;12.238;2024-03-23T15:45:57;14.40;;;9.70;;
38783;SDS011;24531;45.502;12.238;2024-03-23T15:48:28;12.65;;;9.63;;
38783;SDS011;24531;45.502;12.238;2024-03-23T15:50:54;16.70;;;10.70;;